Airfield :
LOGIN :

Register | Disclaimer

   EN    FR    IT 

 










Legend :    VFR   Marginal VFR   IFR   Intensive IFR   Very Intensive IFR
Visi :
Ceiling :
>= 8 km
>= 3000ft
5 to 8 km
1000 to 3000 ft
1500m to 5 km
500 to 1000 ft
800 to 1500m
200 to 500 ft
< 800m
< 200 ft
Symbols :   Thunderstorms  Fog  Heavy snow  Heavy precipitations  Wind > 20 kt
SIGMETs :     Misc.  Thunderstorms  Icing  Turbulence  Mountain Waves  Volcanic Ashes






- Airport Elevation : 404 ft
- IATA code : WRO


EPWR - Wroclaw

CURRENT METAR :
  • 180600Z 13012KT CAVOK 11/06 Q1007

EXPIRED METARs :
  • 180530Z 14009KT CAVOK 11/06 Q1007
  • 180500Z 13013KT CAVOK 11/06 Q1007
  • 180430Z 14010KT CAVOK 11/06 Q1007
  • 180400Z 13013KT CAVOK 11/06 Q1007
  • 180330Z 13015KT CAVOK 12/06 Q1007

TAF TAF EPWR
Valid from the 18 at 06:00 until the 19 at 06:00 UTC


180530Z 1806/1906 13014KT CAVOK
TEMPO 1806/1810 16015G25KT
PROB30
TEMPO 1810/1818 4000 SHRA BKN013CB
BECMG 1816/1818 20014KT



MET'MAP, your aeronautical weather chart ! - Copyright ORBIFLY December 2007 - Disclaimer

ORBIFLY MET'MAP TEAM :

Programming & Development : Alexandra Zaïnal
Concept & Development : Baudouin d'Aumeries
Co-Development & Prog : Marc-Olivier Méhu
Technical & hardware support : Manuel Goepfert

Contact : metmap@orbifly.com




SOURCES & CREDITS :

   NOAA